Sand Creek, Wisconsin
Current Conditions -  °F | °C
As of 4:35 PM on Wednesday 26 Nov 2014 (Local Time) from KY23 Reporting Station
Overcast Overcast  
Wind Chill: 17°   Ceiling: 2300
Heat Index: 24°   Visibility: 10mi
Dew Point: 18°   Wind: 6mph
Humidity: 78%   Direction: 330°NNW
Pressure: 30.22"   Gusts: NA
Location:  45.17°N, 91.69°W
Report Text: KY23 262235Z AUTO 33005KT 10SM OVC023 M04/M08 A3022 RMK AO2 T10451078
Loading
Personal Weather Stations






























Interactive Weather Map New forecast layout! Learn more

10-Day Weather Forecast

Advertisements
Track Severe Weather on mobile